createdAt,value
2022-10-11T00:01:19.700Z,102479.00
2022-10-11T00:03:46.148Z,102490.25
2022-10-11T00:06:12.600Z,102491.16
2022-10-11T00:08:39.104Z,102490.31
2022-10-11T00:11:07.239Z,102490.34
2022-10-11T00:13:35.254Z,102485.16
2022-10-11T00:16:07.131Z,102486.97
2022-10-11T00:18:33.805Z,102485.22
2022-10-11T00:21:05.528Z,102492.19
2022-10-11T00:23:32.389Z,102494.84
2022-10-11T00:26:01.106Z,102498.31
2022-10-11T00:28:27.917Z,102496.63
2022-10-11T00:30:54.443Z,102494.88
2022-10-11T00:33:21.175Z,102495.81
2022-10-11T00:35:48.678Z,102501.00
2022-10-11T00:38:15.575Z,102498.50
2022-10-11T00:40:42.147Z,102501.09
2022-10-11T00:43:17.387Z,102497.63
2022-10-11T00:46:02.385Z,102507.09
2022-10-11T00:48:44.641Z,102507.97
2022-10-11T00:51:21.412Z,102504.50
2022-10-11T00:53:51.021Z,102509.72
2022-10-11T00:56:23.852Z,102510.59
2022-10-11T00:58:51.660Z,102505.44
2022-10-11T01:01:18.262Z,102515.81
2022-10-11T01:03:45.173Z,102511.53
2022-10-11T01:06:11.792Z,102508.94
2022-10-11T01:08:38.904Z,102515.06
2022-10-11T01:11:06.362Z,102521.97
2022-10-11T01:13:50.128Z,102520.25
2022-10-11T01:16:34.111Z,102522.00
2022-10-11T01:19:32.778Z,102523.75
2022-10-11T01:22:21.171Z,102527.22
2022-10-11T01:25:06.502Z,102525.47
2022-10-11T01:28:11.317Z,102524.63
2022-10-11T01:30:38.535Z,102524.72
2022-10-11T01:33:08.064Z,102534.25
2022-10-11T01:35:53.280Z,102533.41
2022-10-11T01:38:33.018Z,102542.94
2022-10-11T01:41:05.914Z,102538.66
2022-10-11T01:43:35.266Z,102541.25
2022-10-11T01:46:03.008Z,102543.00
2022-10-11T01:48:29.848Z,102544.75
2022-10-11T01:50:58.790Z,102542.13
2022-10-11T01:53:28.396Z,102541.28
2022-10-11T01:56:00.311Z,102541.25
2022-10-11T01:58:48.010Z,102543.00
2022-10-11T02:01:42.266Z,102548.22
2022-10-11T02:04:21.528Z,102551.69
2022-10-11T02:07:10.874Z,102548.25
2022-10-11T02:10:07.362Z,102548.25
2022-10-11T02:12:42.761Z,102544.00
2022-10-11T02:15:11.107Z,102544.06
2022-10-11T02:17:44.564Z,102552.75
2022-10-11T02:20:16.320Z,102553.59
2022-10-11T02:22:46.332Z,102548.41
2022-10-11T02:25:18.966Z,102545.81
2022-10-11T02:27:48.659Z,102548.47
2022-10-11T02:30:16.208Z,102545.88
2022-10-11T02:32:46.463Z,102553.66
2022-10-11T02:35:13.614Z,102551.97
2022-10-11T02:37:57.428Z,102549.34
2022-10-11T02:40:37.685Z,102545.88
2022-10-11T02:43:24.157Z,102552.81
2022-10-11T02:45:55.453Z,102555.47
2022-10-11T02:48:24.083Z,102557.19
2022-10-11T02:50:51.344Z,102564.09
2022-10-11T02:53:18.144Z,102569.28
2022-10-11T02:55:45.111Z,102562.41
2022-10-11T02:58:11.598Z,102566.75
2022-10-11T03:00:38.149Z,102562.47
2022-10-11T03:03:04.755Z,102560.78
2022-10-11T03:05:32.587Z,102570.25
2022-10-11T03:07:59.067Z,102571.16
2022-10-11T03:10:25.771Z,102565.97
2022-10-11T03:12:52.323Z,102565.97
2022-10-11T03:15:18.827Z,102571.09
2022-10-11T03:17:45.389Z,102567.66
2022-10-11T03:20:11.927Z,102572.00
2022-10-11T03:22:38.660Z,102565.97
2022-10-11T03:25:05.512Z,102570.31
2022-10-11T03:27:35.518Z,102569.41
2022-10-11T03:30:02.452Z,102565.97
2022-10-11T03:32:29.494Z,102572.94
2022-10-11T03:34:56.608Z,102572.91
2022-10-11T03:37:23.722Z,102572.06
2022-10-11T03:39:50.319Z,102582.41
2022-10-11T03:42:16.898Z,102586.75
2022-10-11T03:44:43.392Z,102583.31
2022-10-11T03:47:10.114Z,102584.22
2022-10-11T03:49:39.985Z,102589.41
2022-10-11T03:52:09.146Z,102597.19
2022-10-11T03:54:35.634Z,102593.69
2022-10-11T03:57:02.227Z,102595.44
2022-10-11T03:59:28.880Z,102595.44
2022-10-11T04:01:55.520Z,102598.88
2022-10-11T04:04:22.002Z,102593.75
2022-10-11T04:06:48.435Z,102588.63
2022-10-11T04:09:15.027Z,102588.63
2022-10-11T04:11:41.583Z,102598.97
2022-10-11T04:14:08.324Z,102600.72
2022-10-11T04:16:35.429Z,102605.06
2022-10-11T04:19:01.849Z,102601.69
2022-10-11T04:21:28.300Z,102606.88
2022-10-11T04:23:54.784Z,102606.88
2022-10-11T04:26:21.197Z,102615.47
2022-10-11T04:28:47.710Z,102615.47
2022-10-11T04:31:14.330Z,102610.34
2022-10-11T04:33:40.813Z,102614.63
2022-10-11T04:36:07.998Z,102615.53
2022-10-11T04:38:35.220Z,102612.94
2022-10-11T04:41:19.806Z,102616.38
2022-10-11T04:43:46.360Z,102614.69
2022-10-11T04:46:12.882Z,102615.53
2022-10-11T04:48:39.302Z,102618.13
2022-10-11T04:51:05.997Z,102623.28
2022-10-11T04:53:32.500Z,102618.97
2022-10-11T04:56:01.512Z,102627.59
2022-10-11T04:58:29.748Z,102625.88
2022-10-11T05:00:56.792Z,102625.00
2022-10-11T05:03:24.092Z,102635.34
2022-10-11T05:05:51.383Z,102625.84
2022-10-11T05:08:17.821Z,102631.00
2022-10-11T05:10:57.850Z,102635.25
2022-10-11T05:13:25.041Z,102631.81
2022-10-11T05:15:51.693Z,102633.56
2022-10-11T05:18:18.877Z,102634.44
2022-10-11T05:20:45.895Z,102635.31
2022-10-11T05:23:13.005Z,102637.91
2022-10-11T05:25:39.526Z,102636.19
2022-10-11T05:28:06.315Z,102637.94
2022-10-11T05:30:32.994Z,102643.13
2022-10-11T05:32:59.631Z,102642.22
2022-10-11T05:35:26.130Z,102647.47
2022-10-11T05:37:52.653Z,102650.94
2022-10-11T05:40:19.162Z,102650.09
2022-10-11T05:42:45.574Z,102650.06
2022-10-11T05:45:12.059Z,102644.88
2022-10-11T05:47:38.704Z,102649.19
2022-10-11T05:50:05.887Z,102644.91
2022-10-11T05:52:32.320Z,102655.28
2022-10-11T05:54:58.849Z,102660.47
2022-10-11T05:57:25.324Z,102658.75
2022-10-11T05:59:51.852Z,102657.88
2022-10-11T06:02:18.401Z,102663.94
2022-10-11T06:04:44.945Z,102664.81
2022-10-11T06:07:11.384Z,102660.53
2022-10-11T06:09:37.954Z,102670.03
2022-10-11T06:12:04.578Z,102669.16
2022-10-11T06:14:31.152Z,102672.59
2022-10-11T06:16:57.640Z,102671.72
2022-10-11T06:19:24.181Z,102670.81
2022-10-11T06:21:51.454Z,102673.41
2022-10-11T06:24:18.338Z,102675.94
2022-10-11T06:26:44.760Z,102675.06
2022-10-11T06:29:11.622Z,102676.78
2022-10-11T06:31:38.075Z,102675.91
2022-10-11T06:34:04.868Z,102692.25
2022-10-11T06:36:31.391Z,102687.06
2022-10-11T06:39:00.910Z,102689.66
2022-10-11T06:41:29.765Z,102698.28
2022-10-11T06:43:57.276Z,102700.03
2022-10-11T06:46:26.181Z,102702.56
2022-10-11T06:48:53.922Z,102707.75
2022-10-11T06:51:22.724Z,102699.97
2022-10-11T06:53:56.705Z,102704.28
2022-10-11T06:56:24.580Z,102701.69
2022-10-11T06:58:51.485Z,102705.97
2022-10-11T07:01:20.019Z,102719.78
2022-10-11T07:03:47.882Z,102719.75
2022-10-11T07:06:20.893Z,102720.63
2022-10-11T07:08:48.076Z,102714.53
2022-10-11T07:11:17.467Z,102722.28
2022-10-11T07:13:49.789Z,102722.22
2022-10-11T07:16:17.325Z,102730.84
2022-10-11T07:18:43.783Z,102724.81
2022-10-11T07:21:15.745Z,102726.47
2022-10-11T07:23:42.980Z,102725.56
2022-10-11T07:26:11.026Z,102736.72
2022-10-11T07:28:38.567Z,102741.00
2022-10-11T07:31:14.066Z,102747.00
2022-10-11T07:33:40.592Z,102741.81
2022-10-11T07:36:08.147Z,102735.72
2022-10-11T07:38:35.130Z,102742.53
2022-10-11T07:41:05.599Z,102745.03
2022-10-11T07:43:33.160Z,102738.03
2022-10-11T07:46:04.649Z,102739.72
2022-10-11T07:48:33.554Z,102740.50
2022-10-11T07:51:16.858Z,102742.19
2022-10-11T07:53:54.572Z,102736.09
2022-10-11T07:56:30.273Z,102742.06
2022-10-11T07:58:59.853Z,102749.78
2022-10-11T08:01:28.231Z,102750.56
2022-10-11T08:03:56.912Z,102750.53
2022-10-11T08:06:30.278Z,102768.63
2022-10-11T08:08:58.705Z,102763.25
2022-10-11T08:11:37.032Z,102769.88
2022-10-11T08:14:08.567Z,102769.56
2022-10-11T08:16:36.331Z,102766.59
2022-10-11T08:19:03.391Z,102765.41
2022-10-11T08:21:30.978Z,102774.66
2022-10-11T08:23:57.489Z,102770.13
2022-10-11T08:26:24.613Z,102769.09
2022-10-11T08:28:51.178Z,102775.75
2022-10-11T08:31:17.803Z,102772.81
2022-10-11T08:33:44.745Z,102771.66
2022-10-11T08:36:12.592Z,102768.00
2022-10-11T08:38:39.630Z,102772.13
2022-10-11T08:41:27.493Z,102777.75
2022-10-11T08:44:05.851Z,102784.44
2022-10-11T08:46:35.205Z,102786.16
2022-10-11T08:49:02.696Z,102782.56
2022-10-11T08:51:34.006Z,102782.44
2022-10-11T08:54:07.929Z,102790.13
2022-10-11T08:56:39.878Z,102791.75
2022-10-11T08:59:12.483Z,102787.09
2022-10-11T09:01:47.581Z,102787.72
2022-10-11T09:04:15.322Z,102792.94
2022-10-11T09:06:52.063Z,102791.97
2022-10-11T09:09:37.009Z,102794.28
2022-10-11T09:12:31.156Z,102789.50
2022-10-11T09:15:36.253Z,102797.06
2022-10-11T09:18:20.694Z,102795.22
2022-10-11T09:21:14.581Z,102798.50
2022-10-11T09:24:30.798Z,102798.16
2022-10-11T09:27:38.112Z,102800.47
2022-10-11T09:30:14.753Z,102804.59
2022-10-11T09:32:47.664Z,102801.84
2022-10-11T09:35:17.292Z,102799.94
2022-10-11T09:38:18.944Z,102798.56
2022-10-11T09:41:06.707Z,102794.59
2022-10-11T09:43:33.345Z,102801.91
2022-10-11T09:45:59.910Z,102793.59
2022-10-11T09:48:32.991Z,102799.34
2022-10-11T09:51:04.813Z,102800.72
2022-10-11T09:53:59.671Z,102802.28
2022-10-11T09:56:29.401Z,102804.44
2022-10-11T09:59:27.238Z,102807.31
2022-10-11T10:02:22.800Z,102800.53
2022-10-11T10:05:01.635Z,102806.44
2022-10-11T10:07:30.485Z,102796.28
2022-10-11T10:09:57.856Z,102798.13
2022-10-11T10:12:28.723Z,102803.03
2022-10-11T10:15:18.768Z,102800.81
2022-10-11T10:17:50.458Z,102800.25
2022-10-11T10:20:22.679Z,102798.09
2022-10-11T10:22:49.556Z,102796.88
2022-10-11T10:25:31.891Z,102795.53
2022-10-11T10:28:01.560Z,102795.84
2022-10-11T10:30:33.067Z,102792.97
2022-10-11T10:33:08.875Z,102792.91
2022-10-11T10:35:52.494Z,102794.38
2022-10-11T10:38:26.892Z,102793.56
2022-10-11T10:40:58.947Z,102793.53
2022-10-11T10:43:29.677Z,102784.59
2022-10-11T10:46:05.999Z,102787.00
2022-10-11T10:52:05.352Z,102786.81
2022-10-11T10:54:48.879Z,102791.22
2022-10-11T10:57:38.557Z,102784.91
2022-10-11T11:00:05.070Z,102781.16
2022-10-11T11:03:01.465Z,102784.88
2022-10-11T11:05:52.481Z,102785.59
2022-10-11T11:08:32.466Z,102785.59
2022-10-11T11:11:58.310Z,102786.78
2022-10-11T11:14:40.380Z,102781.19
2022-10-11T11:17:36.332Z,102773.38
2022-10-11T11:20:24.616Z,102780.91
2022-10-11T11:23:02.063Z,102775.56
2022-10-11T11:25:50.758Z,102781.75
2022-10-11T11:28:45.489Z,102772.56
2022-10-11T11:31:14.972Z,102766.63
2022-10-11T11:33:50.700Z,102771.06
2022-10-11T11:37:06.641Z,102765.94
2022-10-11T11:39:39.742Z,102768.75
2022-10-11T11:42:20.159Z,102767.91
2022-10-11T11:44:49.065Z,102757.91
2022-10-11T11:47:27.344Z,102767.56
2022-10-11T11:50:02.070Z,102763.69
2022-10-11T11:52:36.949Z,102750.75
2022-10-11T11:55:14.693Z,102752.75
2022-10-11T11:58:16.388Z,102754.72
2022-10-11T12:00:58.763Z,102746.00
2022-10-11T12:03:31.195Z,102751.22
2022-10-11T12:06:19.516Z,102754.25
2022-10-11T12:08:55.281Z,102741.66
2022-10-11T12:11:34.633Z,102746.44
2022-10-11T12:14:34.838Z,102745.84
2022-10-11T12:17:13.541Z,102737.50
2022-10-11T12:19:43.584Z,102740.44
2022-10-11T12:22:18.792Z,102736.63
2022-10-11T12:25:00.829Z,102733.28
2022-10-11T12:27:38.282Z,102728.03
2022-10-11T12:30:25.836Z,102721.50
2022-10-11T12:33:02.679Z,102728.19
2022-10-11T12:35:32.313Z,102716.78
2022-10-11T12:38:25.114Z,102720.09
2022-10-11T12:41:06.736Z,102719.00
2022-10-11T12:43:36.851Z,102716.78
2022-10-11T12:46:28.098Z,102717.22
2022-10-11T12:48:57.897Z,102709.13
2022-10-11T12:51:50.390Z,102715.97
2022-10-11T12:54:37.095Z,102716.63
2022-10-11T12:57:12.290Z,102712.56
2022-10-11T12:59:45.324Z,102708.38
2022-10-11T13:02:29.906Z,102708.63
2022-10-11T13:05:44.788Z,102709.75
2022-10-11T13:08:18.953Z,102705.59
2022-10-11T13:10:47.959Z,102709.22
2022-10-11T13:13:24.871Z,102708.34
2022-10-11T13:15:56.769Z,102705.88
2022-10-11T13:18:25.928Z,102700.72
2022-10-11T13:20:53.096Z,102704.31
2022-10-11T13:23:27.902Z,102699.03
2022-10-11T13:25:55.574Z,102701.25
2022-10-11T13:28:23.694Z,102702.53
2022-10-11T13:30:54.414Z,102695.94
2022-10-11T13:33:33.961Z,102698.28
2022-10-11T13:36:03.250Z,102690.31
2022-10-11T13:38:32.836Z,102700.72
2022-10-11T13:41:01.722Z,102691.22
2022-10-11T13:43:30.784Z,102690.41
2022-10-11T13:45:59.535Z,102690.41
2022-10-11T13:48:31.459Z,102694.88
2022-10-11T13:51:09.686Z,102693.19
2022-10-11T13:53:36.442Z,102688.03
2022-10-11T13:56:08.670Z,102682.00
2022-10-11T13:58:46.746Z,102685.47
2022-10-11T14:01:28.946Z,102688.09
2022-10-11T14:03:59.606Z,102683.72
2022-10-11T14:06:49.957Z,102685.31
2022-10-11T14:09:46.850Z,102684.16
2022-10-11T14:12:33.530Z,102677.03
2022-10-11T14:15:01.532Z,102679.47
2022-10-11T14:17:38.382Z,102681.09
2022-10-11T14:20:11.831Z,102677.59
2022-10-11T14:22:38.710Z,102680.13
2022-10-11T14:25:05.576Z,102679.09
2022-10-11T14:27:32.172Z,102679.88
2022-10-11T14:30:24.935Z,102673.75
2022-10-11T14:32:47.405Z,102676.22
2022-10-11T14:35:34.474Z,102671.66
2022-10-11T14:38:00.993Z,102676.91
2022-10-11T14:40:30.118Z,102675.00
2022-10-11T14:42:56.930Z,102673.06
2022-10-11T14:45:23.747Z,102662.44
2022-10-11T14:47:50.606Z,102665.84
2022-10-11T14:50:20.082Z,102662.97
2022-10-11T14:52:47.091Z,102660.22
2022-10-11T14:55:13.568Z,102673.22
2022-10-11T14:57:40.012Z,102666.09
2022-10-11T15:00:20.246Z,102671.97
2022-10-11T15:02:47.178Z,102672.81
2022-10-11T15:05:13.808Z,102674.59
2022-10-11T15:07:40.371Z,102661.69
2022-10-11T15:10:29.613Z,102668.88
2022-10-11T15:12:57.396Z,102665.00
2022-10-11T15:15:27.605Z,102672.19
2022-10-11T15:17:56.417Z,102663.81
2022-10-11T15:20:28.826Z,102663.13
2022-10-11T15:22:56.204Z,102666.97
2022-10-11T15:25:23.360Z,102658.34
2022-10-11T15:27:50.722Z,102663.75
2022-10-11T15:30:26.299Z,102662.09
2022-10-11T15:33:05.390Z,102654.28
2022-10-11T15:35:31.926Z,102650.13
2022-10-11T15:38:00.241Z,102656.34
2022-10-11T15:40:30.977Z,102657.28
2022-10-11T15:42:57.461Z,102652.19
2022-10-11T15:45:24.220Z,102652.31
2022-10-11T15:47:51.214Z,102652.50
2022-10-11T15:50:34.478Z,102649.03
2022-10-11T15:53:02.386Z,102651.72
2022-10-11T15:55:30.024Z,102655.31
2022-10-11T15:57:56.815Z,102641.41
2022-10-11T16:00:24.439Z,102651.16
2022-10-11T16:02:54.483Z,102648.56
2022-10-11T16:05:21.872Z,102649.53
2022-10-11T16:07:48.498Z,102639.09
2022-10-11T16:10:15.096Z,102644.41
2022-10-11T16:12:41.916Z,102643.66
2022-10-11T16:15:08.894Z,102646.47
2022-10-11T16:17:35.674Z,102637.84
2022-10-11T16:20:02.190Z,102642.47
2022-10-11T16:22:29.781Z,102647.81
2022-10-11T16:24:56.265Z,102649.59
2022-10-11T16:27:22.802Z,102652.38
2022-10-11T16:29:49.326Z,102650.78
2022-10-11T16:32:15.816Z,102644.75
2022-10-11T16:34:42.398Z,102647.72
2022-10-11T16:37:08.872Z,102653.03
2022-10-11T16:39:35.449Z,102647.00
2022-10-11T16:42:02.009Z,102652.38
2022-10-11T16:44:28.917Z,102661.22
2022-10-11T16:46:55.766Z,102659.53
2022-10-11T16:49:25.919Z,102663.16
2022-10-11T16:51:54.160Z,102667.84
2022-10-11T16:54:21.846Z,102662.47
2022-10-11T16:56:50.155Z,102664.22
2022-10-11T16:59:16.996Z,102657.28
2022-10-11T17:01:43.539Z,102659.97
2022-10-11T17:04:10.028Z,102658.25
2022-10-11T17:06:36.865Z,102657.38
2022-10-11T17:09:04.127Z,102654.91
2022-10-11T17:11:30.761Z,102662.75
2022-10-11T17:14:00.059Z,102654.97
2022-10-11T17:16:27.191Z,102657.66
2022-10-11T17:18:54.051Z,102658.56
2022-10-11T17:21:21.853Z,102663.81
2022-10-11T17:23:49.100Z,102664.69
2022-10-11T17:26:19.143Z,102662.06
2022-10-11T17:28:46.175Z,102662.31
2022-10-11T17:31:13.207Z,102665.97
2022-10-11T17:33:39.705Z,102659.94
2022-10-11T17:36:24.928Z,102660.84
2022-10-11T17:38:52.154Z,102659.34
2022-10-11T17:41:19.968Z,102657.69
2022-10-11T17:43:47.022Z,102665.50
2022-10-11T17:46:14.988Z,102666.44
2022-10-11T17:48:42.150Z,102663.09
2022-10-11T17:51:11.288Z,102658.69
2022-10-11T17:53:38.550Z,102656.28
2022-10-11T17:56:11.025Z,102667.75
2022-10-11T17:58:38.079Z,102662.63
2022-10-11T18:01:17.493Z,102659.84
2022-10-11T18:03:49.860Z,102665.09
2022-10-11T18:06:16.256Z,102668.56
2022-10-11T18:08:42.756Z,102662.69
2022-10-11T18:11:11.979Z,102661.84
2022-10-11T18:13:41.891Z,102661.84
2022-10-11T18:16:09.954Z,102656.66
2022-10-11T18:18:36.853Z,102663.78
2022-10-11T18:21:03.783Z,102657.72
2022-10-11T18:23:30.817Z,102657.75
2022-10-11T18:25:57.434Z,102667.63
2022-10-11T18:28:24.006Z,102664.34
2022-10-11T18:30:50.586Z,102664.34
2022-10-11T18:33:17.188Z,102668.72
2022-10-11T18:35:43.607Z,102664.66
2022-10-11T18:38:10.038Z,102667.44
2022-10-11T18:40:38.358Z,102665.03
2022-10-11T18:43:06.271Z,102668.09
2022-10-11T18:45:32.747Z,102671.63
2022-10-11T18:47:59.200Z,102665.41
2022-10-11T18:50:25.726Z,102671.44
2022-10-11T18:52:52.418Z,102654.94
2022-10-11T18:55:18.979Z,102666.50
2022-10-11T18:57:45.534Z,102663.97
2022-10-11T19:00:37.793Z,102653.50
2022-10-11T19:02:59.011Z,102659.69
2022-10-11T19:05:25.496Z,102661.63
2022-10-11T19:07:51.883Z,102660.84
2022-10-11T19:10:18.341Z,102660.81
2022-10-11T19:12:45.051Z,102654.81
2022-10-11T19:15:11.594Z,102652.34
2022-10-11T19:17:38.067Z,102660.28
2022-10-11T19:20:04.800Z,102657.66
2022-10-11T19:22:31.236Z,102655.06
2022-10-11T19:24:57.665Z,102651.59
2022-10-11T19:27:24.102Z,102655.13
2022-10-11T19:29:50.579Z,102653.47
2022-10-11T19:32:17.024Z,102656.47
2022-10-11T19:34:43.468Z,102662.69
2022-10-11T19:37:13.267Z,102655.81
2022-10-11T19:39:40.350Z,102655.19
2022-10-11T19:42:06.979Z,102654.34
2022-10-11T19:44:38.668Z,102654.28
2022-10-11T19:47:06.463Z,102649.03
2022-10-11T19:49:33.789Z,102652.63
2022-10-11T19:52:01.231Z,102653.59
2022-10-11T19:54:28.159Z,102650.13
2022-10-11T19:56:54.685Z,102646.72
2022-10-11T19:59:21.396Z,102640.66
2022-10-11T20:01:52.412Z,102643.44
2022-10-11T20:04:47.008Z,102642.66
2022-10-11T20:07:06.257Z,102640.91
2022-10-11T20:09:32.752Z,102643.56
2022-10-11T20:11:59.423Z,102640.16
2022-10-11T20:14:26.059Z,102645.56
2022-10-11T20:16:52.744Z,102640.56
2022-10-11T20:19:19.486Z,102645.78
2022-10-11T20:21:46.061Z,102644.09
2022-10-11T20:24:12.862Z,102645.88
2022-10-11T20:26:39.946Z,102647.72
2022-10-11T20:29:06.907Z,102649.44
2022-10-11T20:31:38.174Z,102652.91
2022-10-11T20:34:07.269Z,102643.41
2022-10-11T20:36:36.109Z,102653.88
2022-10-11T20:39:04.965Z,102652.16
2022-10-11T20:41:34.612Z,102656.56
2022-10-11T20:44:02.754Z,102654.84
2022-10-11T20:46:32.285Z,102641.25
2022-10-11T20:49:12.407Z,102645.78
2022-10-11T20:51:41.631Z,102652.97
2022-10-11T20:54:09.063Z,102654.81
2022-10-11T20:56:36.055Z,102652.28
2022-10-11T20:59:02.625Z,102655.66
2022-10-11T21:01:40.763Z,102645.19
2022-10-11T21:04:14.204Z,102645.22
2022-10-11T21:06:40.821Z,102652.19
2022-10-11T21:09:08.561Z,102649.66
2022-10-11T21:11:36.782Z,102649.69
2022-10-11T21:14:05.782Z,102650.53
2022-10-11T21:16:33.109Z,102649.84
2022-10-11T21:19:01.402Z,102647.38
2022-10-11T21:21:29.306Z,102650.00
2022-10-11T21:23:57.471Z,102645.75
2022-10-11T21:26:24.098Z,102648.47
2022-10-11T21:28:50.669Z,102645.06
2022-10-11T21:31:19.320Z,102646.81
2022-10-11T21:33:45.991Z,102652.88
2022-10-11T21:36:18.762Z,102643.44
2022-10-11T21:38:45.556Z,102641.81
2022-10-11T21:41:23.207Z,102649.66
2022-10-11T21:43:50.058Z,102645.41
2022-10-11T21:46:19.910Z,102645.47
2022-10-11T21:48:47.399Z,102648.97
2022-10-11T21:51:25.726Z,102650.78
2022-10-11T21:53:52.666Z,102636.88
2022-10-11T21:56:19.899Z,102651.63
2022-10-11T21:58:47.868Z,102650.78
2022-10-11T22:01:15.026Z,102657.78
2022-10-11T22:03:41.574Z,102658.59
2022-10-11T22:06:08.129Z,102655.09
2022-10-11T22:08:34.733Z,102649.91
2022-10-11T22:11:01.445Z,102648.19
2022-10-11T22:13:29.974Z,102644.69
2022-10-11T22:15:56.919Z,102651.75
2022-10-11T22:18:24.231Z,102642.31
2022-10-11T22:20:51.335Z,102644.06
2022-10-11T22:23:19.079Z,102643.22
2022-10-11T22:25:46.368Z,102642.25
2022-10-11T22:28:13.423Z,102647.38
2022-10-11T22:30:40.196Z,102638.78
2022-10-11T22:33:06.761Z,102640.50
2022-10-11T22:35:37.539Z,102634.28
2022-10-11T22:38:06.111Z,102643.94
2022-10-11T22:40:32.647Z,102637.00
2022-10-11T22:42:59.128Z,102639.72
2022-10-11T22:45:25.605Z,102641.56
2022-10-11T22:47:52.367Z,102644.31
2022-10-11T22:50:18.918Z,102642.50
2022-10-11T22:52:45.385Z,102639.00
2022-10-11T22:55:15.137Z,102639.91
2022-10-11T22:57:44.192Z,102639.94
2022-10-11T23:00:11.314Z,102638.28
2022-10-11T23:02:37.828Z,102629.63
2022-10-11T23:05:04.656Z,102634.06
2022-10-11T23:07:31.164Z,102634.91
2022-10-11T23:09:57.644Z,102633.09
2022-10-11T23:12:24.104Z,102639.09
2022-10-11T23:14:50.636Z,102630.47
2022-10-11T23:17:17.502Z,102628.88
2022-10-11T23:19:44.037Z,102627.13
2022-10-11T23:22:10.586Z,102620.16
2022-10-11T23:24:37.041Z,102626.25
2022-10-11T23:27:03.987Z,102621.06
2022-10-11T23:29:30.989Z,102613.38
2022-10-11T23:31:57.578Z,102617.78
2022-10-11T23:34:24.212Z,102617.03
2022-10-11T23:36:50.861Z,102617.00
2022-10-11T23:39:17.321Z,102611.00
2022-10-11T23:41:43.855Z,102619.63
2022-10-11T23:44:10.763Z,102610.94
2022-10-11T23:46:37.349Z,102611.84
2022-10-11T23:49:04.211Z,102614.44
2022-10-11T23:51:31.003Z,102611.91
2022-10-11T23:53:57.605Z,102612.81
2022-10-11T23:56:24.515Z,102624.97
2022-10-11T23:58:51.071Z,102622.44
